tititudorancea.com
Station Historical Data
Daily Summary for July 20, 2018 Units:  Metric    English   Both
« Previous Day
Next Day »
Daily Weekly Monthly Yearly Custom
  High: Low: Average:
Temperature: -17.8 °C 2 °C 6.5 °C
Dew Point: -17.8 °C 1.2 °C 3.6 °C
Humidity: Humidity % 61 % 82 %
Wind Speed: 0 km/h 0 km/h 14.2 km/h
Wind Gust: 0 km/h - -
Wind:- - WNW
Pressure: 0 hPa 1006.3 hPa -
Precipitation: 2.29 mm    
Historical Graphs
 
 
Ararat weather Find more about Weather in Ararat, AU


 



 


Tabular Data for July 20, 2018
Time Temperature Dew Point Pressure Wind Wind Speed Wind Gust Humidity Rainfall Rate (Hourly)
-17.8 °C -17.8 °C 0 hPa Calm     Humidity % 0 mm
00:04 4.2 °C 3.3 °C 1006.3 hPa North 7.4 km/h 5.8 km/h 94 % 0 mm
00:09 4.2 °C 3.3 °C 1006.3 hPa North 5.6 km/h 2.7 km/h 94 % 0 mm
00:14 4.3 °C 3.4 °C 1006.3 hPa North 3.7 km/h 3.2 km/h 94 % 0 mm
00:19 4.2 °C 3.3 °C 1006.3 hPa North 3.7 km/h 0.6 km/h 94 % 0 mm
00:24 4.2 °C 3.3 °C 1006.3 hPa Calm     94 % 0 mm
00:29 4.2 °C 3.3 °C 1006.3 hPa Calm     94 % 0 mm
00:34 4.2 °C 3.4 °C 1006.3 hPa North 1.6 km/h 0.5 km/h 95 % 0 mm
00:39 4.1 °C 3.2 °C 1006.7 hPa Calm     94 % 0 mm
00:44 4 °C 3.1 °C 1006.7 hPa Calm     94 % 0 mm
00:49 4 °C 3.1 °C 1006.7 hPa Calm     94 % 0 mm
00:54 3.9 °C 3.1 °C 1006.7 hPa Calm     94 % 0 mm
00:59 3.8 °C 2.9 °C 1006.7 hPa Calm     94 % 0 mm
01:04 3.7 °C 2.8 °C 1006.3 hPa Calm     94 % 0 mm
01:09 3.7 °C 2.8 °C 1006.3 hPa Calm     94 % 0 mm
01:14 3.5 °C 2.6 °C 1006.7 hPa Calm     94 % 0 mm
01:19 3.5 °C 2.6 °C 1006.7 hPa Calm     94 % 0 mm
01:24 3.6 °C 2.8 °C 1006.3 hPa Calm     95 % 0 mm
01:29 3.4 °C 2.6 °C 1006.3 hPa North 3.7 km/h 1.9 km/h 94 % 0 mm
01:34 3.3 °C 2.4 °C 1006.7 hPa North 3.2 km/h 1.1 km/h 94 % 0 mm
01:39 3.3 °C 2.4 °C 1006.7 hPa North 3.7 km/h 2.9 km/h 94 % 0 mm
01:44 3.3 °C 2.4 °C 1006.7 hPa Calm     94 % 0 mm
01:49 3.2 °C 2.3 °C 1006.7 hPa Calm     94 % 0 mm
01:54 3.1 °C 2.2 °C 1007 hPa North 1.9 km/h 0.2 km/h 94 % 0 mm
01:59 3 °C 2.1 °C 1007 hPa North 5.6 km/h 2.9 km/h 94 % 0 mm
02:04 3 °C 2.1 °C 1007 hPa North 4.8 km/h 3.7 km/h 94 % 0 mm
02:09 3 °C 2.3 °C 1007 hPa North 5.6 km/h 2.7 km/h 95 % 0 mm
02:14 3 °C 2.3 °C 1006.7 hPa North 1.9 km/h   95 % 0 mm
02:19 3 °C 2.3 °C 1006.7 hPa North 3.2 km/h 1 km/h 95 % 0 mm
02:24 3 °C 2.3 °C 1006.7 hPa North 3.7 km/h 1.3 km/h 95 % 0 mm
02:29 3.1 °C 2.3 °C 1006.7 hPa North 3.7 km/h 1.1 km/h 95 % 0 mm
02:34 3 °C 2.1 °C 1006.7 hPa North 5.6 km/h 1.3 km/h 94 % 0 mm
02:39 2.8 °C 2.1 °C 1006.7 hPa North 5.6 km/h 0.8 km/h 95 % 0 mm
02:44 2.7 °C 1.8 °C 1006.7 hPa North 5.6 km/h 0.3 km/h 94 % 0 mm
02:49 2.7 °C 1.9 °C 1006.7 hPa North 5.6 km/h 2.1 km/h 95 % 0 mm
02:54 2.7 °C 2 °C 1006.7 hPa Calm     95 % 0 mm
02:59 2.6 °C 1.7 °C 1006.7 hPa North 3.7 km/h 1.1 km/h 94 % 0 mm
03:04 2.5 °C 1.8 °C 1006.7 hPa Calm     95 % 0 mm
03:09 2.3 °C 1.4 °C 1006.7 hPa North 1.9 km/h   94 % 0 mm
03:14 2.2 °C 1.5 °C 1006.7 hPa Calm     95 % 0 mm
03:19 2.1 °C 1.4 °C 1006.7 hPa Calm     95 % 0 mm
03:24 2.2 °C 1.5 °C 1006.7 hPa North 3.7 km/h   95 % 0 mm
03:29 2.2 °C 1.5 °C 1006.7 hPa Calm     95 % 0 mm
03:34 2.2 °C 1.5 °C 1006.7 hPa North 5.6 km/h 4 km/h 95 % 0 mm
03:39 2.1 °C 1.2 °C 1006.7 hPa Calm     94 % 0 mm
03:44 2 °C 1.3 °C 1006.7 hPa Calm     95 % 0 mm
03:49 2 °C 1.3 °C 1006.7 hPa North 7.4 km/h 2.7 km/h 95 % 0 mm
03:54 2.2 °C 1.4 °C 1006.7 hPa North 5.6 km/h 1 km/h 95 % 0 mm
03:59 2.2 °C 1.5 °C 1006.7 hPa North 3.7 km/h 1.9 km/h 95 % 0 mm
04:04 2.2 °C 1.5 °C 1006.7 hPa North 3.7 km/h 1.9 km/h 95 % 0 mm
04:09 2.2 °C 1.4 °C 1007 hPa Calm     95 % 0 mm
04:14 2.2 °C 1.5 °C 1007 hPa North 6.4 km/h 6.9 km/h 95 % 0 mm
04:19 3.1 °C 2.5 °C 1007 hPa North 13 km/h 7.7 km/h 96 % 0 mm
04:24 3.5 °C 2.9 °C 1007 hPa NNW 5.6 km/h 4.8 km/h 96 % 0 mm
04:29 3.7 °C 2.9 °C 1007 hPa North 5.6 km/h 4.5 km/h 95 % 0 mm
04:34 3.6 °C 2.7 °C 1007 hPa NNW 6.4 km/h 5.8 km/h 94 % 0 mm
04:39 3.6 °C 2.7 °C 1007 hPa North 13 km/h 10.9 km/h 94 % 0 mm
04:44 4.1 °C 3.2 °C 1007 hPa NW 11.3 km/h 10.5 km/h 94 % 0 mm
04:49 4.6 °C 3.4 °C 1007 hPa North 9.3 km/h 6.4 km/h 92 % 0 mm
04:54 4.7 °C 3.3 °C 1007 hPa North 7.4 km/h 5.8 km/h 91 % 0 mm
04:59 4.7 °C 3.2 °C 1007.3 hPa North 7.4 km/h 7.2 km/h 90 % 0 mm
05:04 4.6 °C 2.9 °C 1007.3 hPa WNW 9.3 km/h 8.2 km/h 89 % 0 mm
05:09 4.6 °C 2.8 °C 1007.3 hPa WNW 8 km/h 6.6 km/h 88 % 0 mm
05:14 4.7 °C 2.9 °C 1007.3 hPa WNW 5.6 km/h 3.4 km/h 88 % 0 mm
05:19 4.7 °C 2.7 °C 1007.3 hPa WNW 5.6 km/h 3.2 km/h 87 % 0 mm
05:24 4.7 °C 2.5 °C 1007.3 hPa North 5.6 km/h 3.4 km/h 86 % 0 mm
05:29 4.5 °C 2.3 °C 1007.3 hPa North 7.4 km/h 5 km/h 86 % 0 mm
05:34 4.5 °C 2.3 °C 1007.3 hPa WNW 5.6 km/h 0.2 km/h 86 % 0 mm
05:39 4.4 °C 2.3 °C 1007.3 hPa North 3.7 km/h 0.3 km/h 86 % 0 mm
05:44 4.3 °C 2.2 °C 1007.3 hPa WNW 5.6 km/h 3.2 km/h 86 % 0 mm
05:49 4.2 °C 2.1 °C 1007.7 hPa WNW 7.4 km/h 6 km/h 86 % 0 mm
05:54 4.4 °C 2.1 °C 1007.7 hPa WNW 16.1 km/h 8.5 km/h 85 % 0 mm
05:59 4.7 °C 2.2 °C 1007.7 hPa WNW 16.7 km/h 11.4 km/h 84 % 0 mm
06:04 4.8 °C 2.1 °C 1007.7 hPa WNW 5.6 km/h 3.2 km/h 83 % 0.25 mm
06:09 5.1 °C 2.4 °C 1007.7 hPa North 16.7 km/h 8.9 km/h 83 % 0.25 mm
06:14 5.3 °C 2.4 °C 1008 hPa West 11.3 km/h 14.3 km/h 82 % 0.25 mm
06:19 5.6 °C 2.4 °C 1008 hPa WSW 14.8 km/h 9 km/h 80 % 0.25 mm
06:24 5.6 °C 2.4 °C 1008 hPa West 9.3 km/h 7.2 km/h 80 % 0.25 mm
06:29 5.7 °C 2.3 °C 1008 hPa West 19.3 km/h 17.2 km/h 79 % 0.25 mm
06:34 5.8 °C 2.3 °C 1008.4 hPa West 24.1 km/h 13.8 km/h 78 % 0.25 mm
06:39 5.8 °C 2.3 °C 1008.4 hPa North 14.8 km/h 10.6 km/h 78 % 0.25 mm
06:44 5.7 °C 2.2 °C 1008.4 hPa West 14.8 km/h 12.2 km/h 78 % 0.25 mm
06:49 5.8 °C 2.2 °C 1008.4 hPa West 27.8 km/h 14.3 km/h 78 % 0.25 mm
06:54 5.8 °C 2.1 °C 1008.4 hPa WSW 14.8 km/h 12.6 km/h 77 % 0.25 mm
06:59 5.7 °C 2 °C 1008.4 hPa WSW 11.1 km/h 7.2 km/h 77 % 0.25 mm
07:04 5.6 °C 2.1 °C 1008.7 hPa West 11.3 km/h 11.1 km/h 78 % 0 mm
07:09 5.7 °C 2.1 °C 1008.7 hPa North 22.2 km/h 12.9 km/h 78 % 0 mm
07:14 5.8 °C 2.2 °C 1008.7 hPa North 18.5 km/h 11.1 km/h 78 % 0 mm
07:19 5.8 °C 2.2 °C 1008.7 hPa North 18.5 km/h 12.4 km/h 78 % 0 mm
07:24 5.7 °C 2.2 °C 1008.7 hPa North 14.8 km/h 9.3 km/h 78 % 0 mm
07:29 5.5 °C 1.9 °C 1008.7 hPa West 13 km/h 10.9 km/h 78 % 0 mm
07:34 5.5 °C 1.9 °C 1009 hPa West 14.8 km/h 10.8 km/h 78 % 0 mm
07:39 5.5 °C 1.9 °C 1009 hPa North 18.5 km/h 8.7 km/h 78 % 0 mm
07:44 5.6 °C 2 °C 1009 hPa West 22.2 km/h 12.1 km/h 78 % 0 mm
07:49 5.6 °C 2.1 °C 1009 hPa WSW 16.7 km/h 14.3 km/h 78 % 0 mm
07:54 5.7 °C 2.2 °C 1009 hPa West 18.5 km/h 11.6 km/h 78 % 0 mm
07:59 5.7 °C 2.1 °C 1009.4 hPa West 8 km/h 6 km/h 78 % 0 mm
08:04 5.6 °C 2.1 °C 1009.7 hPa West 14.8 km/h 7.6 km/h 78 % 0 mm
08:09 5.6 °C 2 °C 1009.7 hPa West 9.3 km/h 6.9 km/h 78 % 0 mm
08:14 5.4 °C 1.9 °C 1009.7 hPa West 7.4 km/h 4.2 km/h 78 % 0 mm
08:19 5.5 °C 1.9 °C 1009.7 hPa West 9.3 km/h 7.1 km/h 78 % 0 mm
08:24 5.5 °C 1.9 °C 1010 hPa NW 7.4 km/h 4.5 km/h 78 % 0 mm
08:25 5.5 °C 1.9 °C 1010 hPa NW 7.4 km/h 4.3 km/h 78 % 0 mm
08:29 5.5 °C 1.9 °C 1010 hPa NW 5.6 km/h 5.8 km/h 78 % 0 mm
08:34 5.4 °C 1.9 °C 1010 hPa NW 9.3 km/h 6.6 km/h 78 % 0 mm
08:39 5.6 °C 2 °C 1010 hPa NW 9.7 km/h 6.9 km/h 78 % 0 mm
08:44 5.7 °C 2.1 °C 1010 hPa NW 6.4 km/h 5.6 km/h 78 % 0 mm
08:49 6 °C 2.4 °C 1010 hPa NW 13 km/h 8.2 km/h 78 % 0 mm
08:54 6.3 °C 2.6 °C 1010.4 hPa WNW 14.5 km/h 10.9 km/h 77 % 0 mm
08:59 6.5 °C 2.8 °C 1010.4 hPa WNW 11.3 km/h 7.9 km/h 77 % 0 mm
09:04 6.7 °C 2.6 °C 1010.4 hPa WNW 13 km/h 8.4 km/h 75 % 0 mm
09:09 6.9 °C 2.6 °C 1010.4 hPa West 7.4 km/h 7.7 km/h 74 % 0 mm
09:14 7.1 °C 2.8 °C 1010.4 hPa West 14.8 km/h 11.3 km/h 74 % 0 mm
09:19 7.2 °C 2.7 °C 1010.4 hPa West 27.8 km/h 15.1 km/h 73 % 0 mm
09:24 7.3 °C 2.8 °C 1010.4 hPa North 20.4 km/h 15.4 km/h 73 % 0 mm
09:29 7.4 °C 2.9 °C 1010.4 hPa West 16.7 km/h 10.3 km/h 73 % 0 mm
09:34 7.5 °C 2.8 °C 1010.4 hPa WNW 24.1 km/h 17.5 km/h 72 % 0 mm
09:39 7.6 °C 2.8 °C 1010.4 hPa North 31.5 km/h 20.8 km/h 72 % 0 mm
09:44 7.7 °C 2.9 °C 1010.7 hPa WSW 20.4 km/h 12.2 km/h 72 % 0 mm
09:49 7.8 °C 2.8 °C 1010.7 hPa West 22.5 km/h 22.5 km/h 71 % 0 mm
09:54 7.8 °C 2.8 °C 1010.7 hPa WSW 22.5 km/h 18.5 km/h 71 % 0 mm
09:59 7.8 °C 2.7 °C 1010.7 hPa WSW 27.8 km/h 24.8 km/h 70 % 0 mm
10:04 7.8 °C 2.7 °C 1011.1 hPa West 24.1 km/h 22.2 km/h 70 % 0 mm
10:09 8 °C 3.1 °C 1011.1 hPa WSW 25.9 km/h 14.5 km/h 71 % 0 mm
10:14 8.2 °C 3 °C 1011.1 hPa West 20.4 km/h 11.7 km/h 70 % 0 mm
10:19 8.3 °C 3.2 °C 1011.1 hPa West 22.2 km/h 16.4 km/h 70 % 0 mm
10:24 8.3 °C 3.1 °C 1011.1 hPa West 18.5 km/h 10.1 km/h 70 % 0 mm
10:29 8.4 °C 3.1 °C 1011.1 hPa West 22.2 km/h 17.4 km/h 69 % 0 mm
10:34 8.5 °C 2.9 °C 1011.1 hPa West 24.1 km/h 15.1 km/h 68 % 0 mm
10:39 8.4 °C 2.9 °C 1011.1 hPa West 29.6 km/h 13.2 km/h 68 % 0 mm
10:44 8.4 °C 2.8 °C 1011.1 hPa West 16.7 km/h 9.8 km/h 68 % 0 mm
10:49 8.5 °C 2.7 °C 1011.4 hPa WNW 25.9 km/h 19.2 km/h 67 % 0 mm
10:54 8.6 °C 2.6 °C 1011.4 hPa West 25.9 km/h 14.2 km/h 66 % 0 mm
10:59 8.8 °C 2.8 °C 1011.4 hPa West 20.4 km/h 16.6 km/h 66 % 0 mm
11:04 8.9 °C 3.1 °C 1011.4 hPa West 14.8 km/h 12.4 km/h 67 % 0 mm
11:09 9.1 °C 3.2 °C 1011.4 hPa WSW 22.2 km/h 13 km/h 67 % 0 mm
11:14 9.3 °C 3.1 °C 1011.4 hPa North 24.1 km/h 21.1 km/h 65 % 0 mm
11:19 9.1 °C 2.9 °C 1011.4 hPa North 20.4 km/h 12.1 km/h 65 % 0 mm
11:24 9.2 °C 2.8 °C 1011.4 hPa North 25.9 km/h 13.2 km/h 64 % 0 mm
11:29 9.2 °C 3 °C 1011.4 hPa North 9.3 km/h 9.3 km/h 65 % 0 mm
11:34 9.2 °C 3 °C 1011.7 hPa West 27.8 km/h 21.4 km/h 65 % 0 mm
11:39 9.2 °C 3 °C 1011.7 hPa West 27.8 km/h 23.3 km/h 65 % 0 mm
11:44 9.1 °C 3.1 °C 1011.7 hPa WNW 29.6 km/h 14.2 km/h 66 % 0 mm
11:49 9.3 °C 3.2 °C 1011.7 hPa West 29.6 km/h 21.6 km/h 66 % 0 mm
11:54 9.6 °C 3.5 °C 1011.7 hPa West 22.2 km/h 17.1 km/h 66 % 0 mm
11:59 9.3 °C 3.3 °C 1011.7 hPa West 20.4 km/h 17.2 km/h 66 % 0 mm
12:04 9.3 °C 3.1 °C 1011.7 hPa West 24.1 km/h 20.4 km/h 65 % 0 mm
12:09 9.7 °C 2.9 °C 1011.4 hPa North 38.9 km/h 21.1 km/h 63 % 0 mm
12:14 9.8 °C 3.1 °C 1011.7 hPa West 25.7 km/h 22.5 km/h 63 % 0 mm
12:19 9.8 °C 3.3 °C 1011.4 hPa North 22.2 km/h 15.3 km/h 64 % 0 mm
12:24 9.9 °C 3.4 °C 1011.4 hPa West 22.2 km/h 12.7 km/h 64 % 0 mm
12:29 10.1 °C 3.4 °C 1011.4 hPa WSW 20.9 km/h 19.5 km/h 63 % 0 mm
12:34 10.1 °C 3.1 °C 1011.4 hPa West 22.2 km/h 12.4 km/h 62 % 0 mm
12:39 10 °C 2.8 °C 1011.4 hPa West 31.5 km/h 21.7 km/h 61 % 0 mm
12:44 9.9 °C 2.7 °C 1011.4 hPa WSW 33.3 km/h 26.9 km/h 61 % 0 mm
12:49 10.1 °C 3.3 °C 1011.1 hPa WSW 27.8 km/h 17.4 km/h 63 % 0 mm
12:54 10.1 °C 3.4 °C 1011.4 hPa WSW 27.4 km/h 21.7 km/h 63 % 0 mm
12:59 9.9 °C 3.2 °C 1011.4 hPa West 35.2 km/h 23.2 km/h 63 % 0 mm
13:04 9.8 °C 3.1 °C 1011.4 hPa West 33.3 km/h 19.6 km/h 63 % 0 mm
13:09 10.2 °C 3.5 °C 1011.1 hPa WSW 25.7 km/h 21.7 km/h 63 % 0 mm
13:14 10.6 °C 3.8 °C 1011.4 hPa SW 29.6 km/h 19.8 km/h 63 % 0 mm
13:19 10.9 °C 3.9 °C 1011.1 hPa North 31.5 km/h 21.2 km/h 62 % 0 mm
13:24 10.4 °C 3.2 °C 1011.4 hPa West 33.3 km/h 27 km/h 61 % 0 mm
13:29 10.4 °C 3.4 °C 1011.4 hPa West 25.9 km/h 20.9 km/h 62 % 0 mm
13:34 10.4 °C 3.9 °C 1011.4 hPa West 33.3 km/h 22.4 km/h 64 % 0 mm
13:39 10.6 °C 4 °C 1011.7 hPa WNW 31.5 km/h 29 km/h 64 % 0 mm
13:44 10.2 °C 3.4 °C 1011.4 hPa WSW 29.6 km/h 27.7 km/h 63 % 0 mm
13:49 10.1 °C 3.8 °C 1011.4 hPa West 31.5 km/h 25.4 km/h 65 % 0 mm
13:54 10.2 °C 3.9 °C 1011.4 hPa North 29.6 km/h 18.3 km/h 65 % 0 mm
13:59 10.6 °C 4 °C 1011.4 hPa West 24.1 km/h 21.1 km/h 64 % 0 mm
14:04 10.4 °C 3.9 °C 1011.4 hPa West 20.4 km/h 18.3 km/h 64 % 0 mm
14:09 10.3 °C 3.8 °C 1011.4 hPa North 24.1 km/h 15.6 km/h 64 % 0 mm
14:14 10.2 °C 3.7 °C 1011.4 hPa West 25.9 km/h 23.7 km/h 64 % 0 mm
14:19 10.1 °C 3.6 °C 1011.4 hPa WSW 31.5 km/h 14.3 km/h 64 % 0 mm
14:24 10.2 °C 3.9 °C 1011.4 hPa WSW 29.6 km/h 18.8 km/h 65 % 0 mm
14:29 10.1 °C 3.8 °C 1011.7 hPa WSW 24.1 km/h 15 km/h 65 % 0 mm
14:34 9.9 °C 4.7 °C 1011.7 hPa West 24.1 km/h 14.6 km/h 70 % 0 mm
14:39 9.8 °C 3.9 °C 1012.1 hPa WSW 29.6 km/h 18.7 km/h 67 % 0 mm
14:44 9.5 °C 4.3 °C 1012.1 hPa West 25.9 km/h 14.2 km/h 70 % 0 mm
14:49 9.2 °C 4.6 °C 1012.1 hPa WSW 27.8 km/h 13.5 km/h 73 % 0 mm
14:54 9.1 °C 4.7 °C 1012.1 hPa WSW 22.2 km/h 21.7 km/h 74 % 0 mm
14:59 9.3 °C 4.7 °C 1012.1 hPa SW 22.5 km/h 14.2 km/h 73 % 0 mm
15:04 9.1 °C 4.7 °C 1012.4 hPa SW 18.5 km/h 12.6 km/h 74 % 0 mm
15:09 8.8 °C 5.3 °C 1012.4 hPa SW 13 km/h 9.3 km/h 79 % 0 mm
15:14 8.4 °C 5.4 °C 1012.4 hPa SW 5.6 km/h 4 km/h 81 % 0 mm
15:19 8.4 °C 5.5 °C 1012.4 hPa SW 11.1 km/h 5.1 km/h 82 % 0 mm
15:24 8.3 °C 5.6 °C 1012.8 hPa SW 18.5 km/h 8.4 km/h 83 % 0.25 mm
15:29 8.2 °C 5.5 °C 1012.8 hPa SW 16.7 km/h 11.1 km/h 83 % 0.51 mm
15:34 8.2 °C 5.6 °C 1012.8 hPa WSW 13 km/h 9 km/h 84 % 0.51 mm
15:39 8.2 °C 5.7 °C 1012.8 hPa WSW 20.9 km/h 10.9 km/h 84 % 0.51 mm
15:44 8.3 °C 5.6 °C 1012.8 hPa West 18.5 km/h 11.6 km/h 83 % 0.51 mm
15:49 8.3 °C 5.4 °C 1012.8 hPa West 18.5 km/h 9 km/h 82 % 0.51 mm
15:54 8.4 °C 5.6 °C 1012.8 hPa WSW 22.2 km/h 12.1 km/h 82 % 0.51 mm
15:59 8.5 °C 5.4 °C 1012.8 hPa WSW 13 km/h 12.7 km/h 81 % 0.51 mm
16:04 8.5 °C 5.4 °C 1013.1 hPa WSW 20.4 km/h 11.7 km/h 81 % 0.51 mm
16:09 8.7 °C 5.4 °C 1013.1 hPa West 16.7 km/h 8.9 km/h 80 % 0.51 mm
16:14 8.7 °C 5.4 °C 1013.1 hPa West 27.8 km/h 16.3 km/h 80 % 0.51 mm
16:19 8.7 °C 5.2 °C 1013.1 hPa West 20.4 km/h 10.5 km/h 79 % 0.51 mm
16:24 8.8 °C 5.3 °C 1013.1 hPa West 18.5 km/h 9.5 km/h 79 % 0.51 mm
16:29 8.8 °C 5.4 °C 1013.1 hPa WSW 18.5 km/h 10 km/h 79 % 0.25 mm
16:34 8.8 °C 5.2 °C 1013.4 hPa West 14.8 km/h 14.2 km/h 78 % 0 mm
16:39 8.8 °C 5.2 °C 1013.4 hPa West 13 km/h 8.9 km/h 78 % 0 mm
16:44 8.8 °C 5.2 °C 1013.4 hPa West 11.1 km/h 8 km/h 78 % 0 mm
16:49 8.8 °C 5.3 °C 1013.8 hPa West 13 km/h 8.9 km/h 79 % 0 mm
16:54 8.7 °C 5.1 °C 1013.8 hPa West 11.3 km/h 8.9 km/h 78 % 0 mm
16:59 8.7 °C 5.2 °C 1013.8 hPa West 14.5 km/h 12.4 km/h 79 % 0 mm
17:04 8.7 °C 5.1 °C 1014.1 hPa North 22.2 km/h 14 km/h 78 % 0 mm
17:09 8.7 °C 4.8 °C 1014.1 hPa West 18.5 km/h 10 km/h 77 % 0 mm
17:14 8.7 °C 5.1 °C 1014.1 hPa North 18.5 km/h 14.8 km/h 78 % 0 mm
17:19 8.7 °C 4.8 °C 1014.1 hPa WSW 20.4 km/h 14.6 km/h 77 % 0 mm
17:24 8.7 °C 4.8 °C 1014.1 hPa WSW 18.5 km/h 10.6 km/h 77 % 0 mm
17:29 8.7 °C 4.8 °C 1014.4 hPa WSW 11.3 km/h 9.2 km/h 77 % 0 mm
17:34 8.6 °C 5 °C 1014.4 hPa WSW 16.7 km/h 9.2 km/h 78 % 0 mm
17:39 8.5 °C 5.1 °C 1014.4 hPa SW 11.3 km/h 9 km/h 79 % 0 mm
17:44 8.2 °C 5.4 °C 1014.8 hPa SW 14.8 km/h 5 km/h 83 % 0 mm
17:49 7.9 °C 5.6 °C 1014.8 hPa SW 14.5 km/h 10.8 km/h 85 % 0 mm
17:54 7.7 °C 5.5 °C 1014.8 hPa SW 11.1 km/h 5.5 km/h 86 % 0 mm
17:59 7.6 °C 5.6 °C 1014.8 hPa North 9.3 km/h 5.5 km/h 87 % 0.25 mm
18:04 7.6 °C 5.6 °C 1014.8 hPa SW 11.1 km/h 8.4 km/h 87 % 0.25 mm
18:09 7.5 °C 5.7 °C 1015.1 hPa SW 11.1 km/h 6.4 km/h 88 % 0.25 mm
18:14 7.4 °C 5.6 °C 1015.1 hPa North 7.4 km/h 7.7 km/h 88 % 0.51 mm
18:19 7.4 °C 5.6 °C 1015.1 hPa SW 11.3 km/h 5.1 km/h 88 % 0.51 mm
18:24 7.3 °C 5.6 °C 1015.1 hPa North 14.8 km/h 8.9 km/h 89 % 0.51 mm
18:29 7.3 °C 5.7 °C 1015.5 hPa SW 11.1 km/h 6.9 km/h 90 % 0.51 mm
18:34 7.2 °C 5.7 °C 1015.5 hPa SW 9.3 km/h 6.6 km/h 90 % 0.51 mm
18:39 7.2 °C 5.6 °C 1015.5 hPa SW 9.3 km/h 5.6 km/h 90 % 0.76 mm
18:44 7.2 °C 5.8 °C 1015.5 hPa SW 8 km/h 6.9 km/h 91 % 0.76 mm
18:49 7.2 °C 5.8 °C 1015.8 hPa North 11.1 km/h 7.2 km/h 91 % 1.02 mm
18:54 7.1 °C 5.7 °C 1015.8 hPa WSW 12.9 km/h 11.1 km/h 91 % 1.27 mm
18:59 7.1 °C 5.7 °C 1015.8 hPa West 16.7 km/h 12.4 km/h 91 % 1.02 mm
19:04 7.1 °C 5.9 °C 1015.8 hPa West 16.7 km/h 13.4 km/h 92 % 1.02 mm
19:09 7.1 °C 5.7 °C 1015.8 hPa WSW 16.7 km/h 14.3 km/h 91 % 1.02 mm
19:14 7.1 °C 5.7 °C 1016.1 hPa WSW 22.2 km/h 14.6 km/h 91 % 0.76 mm
19:19 7.1 °C 5.7 °C 1016.1 hPa WSW 20.4 km/h 15.8 km/h 91 % 0.76 mm
19:24 7.1 °C 5.7 °C 1016.1 hPa West 22.2 km/h 13.8 km/h 91 % 0.51 mm
19:29 7.1 °C 5.5 °C 1016.1 hPa West 18.5 km/h 16.4 km/h 90 % 0.51 mm
19:34 7 °C 5.4 °C 1016.1 hPa West 27.4 km/h 19.2 km/h 90 % 0.76 mm
19:39 7 °C 5.4 °C 1016.1 hPa West 20.4 km/h 14.8 km/h 90 % 0.51 mm
19:44 7.1 °C 5.5 °C 1016.5 hPa West 29.6 km/h 19.3 km/h 90 % 0.51 mm
19:49 7.1 °C 5.5 °C 1016.5 hPa West 18.5 km/h 13.8 km/h 90 % 0.51 mm
19:54 7.1 °C 5.5 °C 1016.5 hPa West 16.7 km/h 12.7 km/h 90 % 0.25 mm
19:59 7 °C 5.4 °C 1016.5 hPa North 20.4 km/h 12.7 km/h 90 % 0.25 mm
20:04 7 °C 5.4 °C 1016.5 hPa West 14.8 km/h 11.3 km/h 90 % 0.25 mm
20:09 6.9 °C 5.4 °C 1016.5 hPa North 14.8 km/h 10.1 km/h 90 % 0.25 mm
20:14 6.9 °C 5.4 °C 1016.5 hPa West 16.7 km/h 9.7 km/h 90 % 0.25 mm
20:19 7 °C 5.4 °C 1016.5 hPa North 18.5 km/h 11.1 km/h 90 % 0.25 mm
20:24 6.9 °C 5.4 °C 1016.8 hPa West 14.5 km/h 9.8 km/h 90 % 0.25 mm
20:29 6.9 °C 5.4 °C 1016.8 hPa North 25.9 km/h 15 km/h 90 % 0.25 mm
20:34 7 °C 5.4 °C 1017.2 hPa WSW 22.2 km/h 15.1 km/h 90 % 0 mm
20:39 7.1 °C 5.6 °C 1017.2 hPa WSW 18.5 km/h 14 km/h 90 % 0 mm
20:44 7.2 °C 5.6 °C 1017.2 hPa WSW 16.7 km/h 10.1 km/h 89 % 0 mm
20:49 7.2 °C 5.6 °C 1017.2 hPa North 16.7 km/h 9.3 km/h 89 % 0 mm
20:54 7.2 °C 5.4 °C 1017.2 hPa WSW 18.5 km/h 10.8 km/h 88 % 0 mm
20:59 7.1 °C 5.4 °C 1017.2 hPa West 20.4 km/h 15.9 km/h 89 % 0 mm
21:04 7.1 °C 5.2 °C 1017.2 hPa North 18.5 km/h 10.3 km/h 88 % 0 mm
21:09 7 °C 5.3 °C 1017.2 hPa West 18.5 km/h 12.7 km/h 89 % 0 mm
21:14 6.9 °C 5.3 °C 1017.2 hPa West 14.5 km/h 13 km/h 89 % 0 mm
21:19 6.8 °C 5.2 °C 1017.5 hPa West 9.3 km/h 8.9 km/h 89 % 0 mm
21:24 6.7 °C 5.2 °C 1017.5 hPa West 13 km/h 10.5 km/h 90 % 0 mm
21:29 6.6 °C 5.1 °C 1017.5 hPa West 13 km/h 7.7 km/h 90 % 0 mm
21:34 6.6 °C 5.1 °C 1017.5 hPa West 9.7 km/h 7.4 km/h 90 % 0 mm
21:39 6.4 °C 4.9 °C 1017.8 hPa West 9.3 km/h 6.3 km/h 90 % 0 mm
21:44 6.4 °C 5.1 °C 1017.8 hPa West 6.4 km/h 5.6 km/h 91 % 0 mm
21:49 6.4 °C 5 °C 1017.5 hPa West 5.6 km/h 3.1 km/h 91 % 0 mm
21:54 6.3 °C 4.8 °C 1017.8 hPa West 5.6 km/h 4.3 km/h 90 % 0 mm
21:59 6.2 °C 4.9 °C 1017.8 hPa North 5.6 km/h 4.5 km/h 91 % 0 mm
22:04 6.2 °C 4.9 °C 1017.8 hPa West 5.6 km/h 2.7 km/h 91 % 0 mm
22:09 6.2 °C 4.7 °C 1017.8 hPa West 5.6 km/h 2.9 km/h 90 % 0 mm
22:14 6.1 °C 4.8 °C 1017.8 hPa West 3.7 km/h 2.9 km/h 91 % 0 mm
22:19 6.2 °C 4.8 °C 1017.8 hPa West 5.6 km/h 3.4 km/h 91 % 0 mm
22:24 6.2 °C 4.8 °C 1017.8 hPa West 6.4 km/h 3.2 km/h 91 % 0 mm
22:29 6.2 °C 4.8 °C 1018.2 hPa West 5.6 km/h 3.7 km/h 91 % 0 mm
22:34 6.1 °C 4.8 °C 1018.2 hPa West 9.3 km/h 6.6 km/h 91 % 0 mm
22:39 6.1 °C 4.6 °C 1018.2 hPa West 7.4 km/h 6.6 km/h 90 % 0 mm
22:44 6 °C 4.5 °C 1018.2 hPa West 7.4 km/h 6.9 km/h 90 % 0 mm
22:49 5.9 °C 4.4 °C 1018.2 hPa West 7.4 km/h 6 km/h 90 % 0 mm
22:54 5.8 °C 4.3 °C 1018.2 hPa North 9.3 km/h 6.1 km/h 90 % 0 mm
22:59 5.7 °C 4.2 °C 1018.2 hPa West 7.4 km/h 6 km/h 90 % 0 mm
23:04 5.7 °C 4.2 °C 1018.2 hPa North 11.1 km/h 6 km/h 90 % 0 mm
23:09 5.8 °C 4.3 °C 1018.5 hPa West 9.3 km/h 7.2 km/h 90 % 0 mm
23:14 5.9 °C 4.6 °C 1018.5 hPa West 11.1 km/h 9.3 km/h 91 % 0 mm
23:19 6.1 °C 4.7 °C 1018.5 hPa West 9.3 km/h 6 km/h 91 % 0 mm
23:24 6.2 °C 4.7 °C 1018.8 hPa West 13 km/h 6.3 km/h 90 % 0 mm
23:29 6.3 °C 4.8 °C 1018.8 hPa West 11.1 km/h 6.3 km/h 90 % 0 mm
23:34 6.3 °C 4.7 °C 1018.8 hPa West 7.4 km/h 4.5 km/h 89 % 0 mm
23:39 6.3 °C 4.7 °C 1018.8 hPa West 5.6 km/h 4.8 km/h 89 % 0 mm
23:44 6.3 °C 4.6 °C 1018.8 hPa West 6.4 km/h 4 km/h 89 % 0 mm
23:49 6.3 °C 4.6 °C 1018.8 hPa West 5.6 km/h 3.1 km/h 89 % 0 mm
23:54 6.3 °C 4.6 °C 1018.8 hPa West 7.4 km/h 5.3 km/h 89 % 0 mm
23:59 6.2 °C 4.6 °C 1018.8 hPa West 5.6 km/h 2.7 km/h 89 % 0 mm
Ararat Weather
Compliments of Weather Underground - 2.25 mb
Click here to send mail.


ABOUT

Live weather data from Ararat, Victoria, Australia, 3377
Data uploaded from Cumulus every 5 minutes to Weather Underground.
This site then downloads the raw data for formatting and display.
Metric and imperial data can be displayed. Graphs and historical data available.
Includes Sun and Moon times and rain image live from BOM.

Check out Ararat Weather on Facebook, Twitter and Google +

Help support ongoing costs by checking out the ads





Follow @AraratWeather